Allenspark, Colorado
Current Conditions -  °F | °C
As of 1:36 PM on Thursday 23 Oct 2014 (Local Time) from KBDU Reporting Station
Clear Clear  
Wind Chill: 68°   Ceiling: Unl
Heat Index: 68°   Visibility: 10mi
Dew Point: 30°   Wind: 7mph
Humidity: 24%   Direction: 280°W
Pressure: 30.11"   Gusts: NA
Location:  40.19°N, 105.53°W
Report Text: KBDU 231936Z AUTO 28006KT 10SM CLR 20/M01 A3011 RMK AO2
Loading
Personal Weather Stations






























Interactive Weather Map New forecast layout! Learn more

10-Day Weather Forecast

Advertisements
Track Severe Weather on mobile